Latest Weather Observations for Cape Moreton

IDQ60801

Issued at 4:43 pm EST Monday 20 May 2024 (issued every 10 minutes, with the page automatically refreshed every 10 minutes)

About weather observations | Map of weather stations | Latest weather observations for QLD | Other Formats
Station Details ID: 040043 Name: CAPE MORETON LIGHTHOUSE Lat: -27.03 Lon: 153.47 Height: 99.9 m
Data from the previous 72 hours. | See also: Recent months at Cape Moreton
Date/Time
EST
Temp
°C
App
Temp
°C
Dew
Point
°C
Rel
Hum
%
Delta-T
°C
Wind Press
QNH
hPa
Press
MSL
hPa
Rain since
9am
mm
Dir  Spd
km/h
Gust
km/h
Spd
kts
Gust
kts
20/04:30pm 19.1 15.7 9.3 53 5.2 S 17 24 9 13 1018.8 1018.5 0.0
20/04:00pm 19.5 16.6 9.7 53 5.2 S 15 20 8 11 1018.7 1018.4 0.0
20/03:30pm 19.6 16.4 8.6 49 5.8 S 15 19 8 10 1018.5 1018.2 0.0
20/03:00pm 19.6 17.4 10.9 57 4.7 S 13 19 7 10 1018.4 1018.1 0.0
20/02:30pm 19.6 16.5 10.3 55 5.0 S 17 24 9 13 1018.2 1017.9 0.0
20/02:00pm 19.9 17.0 10.9 56 4.9 S 17 24 9 13 1018.1 1017.8 0.0
20/01:30pm 19.8 16.5 10.8 56 4.9 SSE 19 26 10 14 1018.1 1017.8 0.0
20/01:00pm 20.1 16.9 11.3 57 4.9 S 19 30 10 16 1018.3 1018.0 0.0
20/12:30pm 19.7 16.0 10.1 54 5.2 SSE 20 33 11 18 1018.5 1018.2 0.0
20/12:00pm 20.0 16.4 10.7 55 5.1 S 20 28 11 15 1018.9 1018.6 0.0
20/11:30am 20.0 16.4 9.9 52 5.4 S 19 28 10 15 1019.4 1019.1 0.0
20/11:00am 19.5 15.4 8.8 50 5.6 S 20 32 11 17 1019.8 1019.5 0.0
20/10:30am 19.8 16.1 9.4 51 5.5 SW 19 28 10 15 1020.1 1019.8 0.0
20/10:00am 19.3 15.7 9.8 54 5.1 SW 19 30 10 16 1020.4 1020.1 0.0
20/09:30am 18.9 15.5 10.5 58 4.5 SW 19 28 10 15 1020.5 1020.3 0.0
20/09:00am 18.0 14.5 10.1 60 4.2 SW 19 26 10 14 1020.3 1020.0 0.0
20/08:30am 17.2 13.5 10.1 63 3.8 SW 20 30 11 16 1020.2 1019.9 0.0
20/08:00am 16.1 12.5 10.0 67 3.2 SW 19 26 10 14 1020.1 1019.8 0.0
20/07:30am 15.2 11.3 9.3 68 3.0 SW 20 26 11 14 1020.0 1019.7 0.0
20/07:00am 14.3 10.3 8.9 70 2.7 WSW 20 24 11 13 1019.8 1019.5 0.0
20/06:30am 14.2 10.1 8.6 69 2.8 SW 20 26 11 14 1019.1 1018.8 0.0
20/06:00am 14.4 9.6 8.8 69 2.8 SW 24 28 13 15 1018.8 1018.5 0.0
20/05:30am 14.6 9.8 9.0 69 2.9 SW 24 32 13 17 1018.4 1018.1 0.0
20/05:00am 14.8 9.9 8.5 66 3.2 SW 24 32 13 17 1018.0 1017.7 0.0
20/04:30am 14.8 9.8 8.1 64 3.4 SW 24 30 13 16 1017.8 1017.5 0.0
20/04:00am 14.9 10.3 8.2 64 3.4 SW 22 28 12 15 1017.7 1017.4 0.0
20/03:30am 15.0 10.9 8.7 66 3.2 SW 20 28 11 15 1017.7 1017.4 0.0
20/03:00am 15.1 10.3 8.8 66 3.2 SW 24 30 13 16 1017.8 1017.5 0.0
20/02:30am 15.1 10.5 9.5 69 2.9 SW 24 33 13 18 1017.8 1017.5 0.0
20/02:00am 15.3 10.4 10.1 71 2.7 SW 26 33 14 18 1017.8 1017.5 0.0
20/01:30am 15.5 11.4 10.1 70 2.8 SW 22 32 12 17 1018.0 1017.7 0.0
20/01:00am 16.0 12.0 9.2 64 3.5 SW 20 28 11 15 1018.2 1017.9 0.0
20/12:30am 16.2 11.0 8.7 61 3.9 SW 26 35 14 19 1018.1 1017.8 0.0
20/12:00am 16.0 11.6 9.0 63 3.6 SW 22 30 12 16 1018.3 1018.0 0.0
 
Date/Time
EST
Temp
°C
App
Temp
°C
Dew
Point
°C
Rel
Hum
%
Delta-T
°C
Wind Press
QNH
hPa
Press
MSL
hPa
Rain since
9am
mm
Dir  Spd
km/h
Gust
km/h
Spd
kts
Gust
kts
19/11:30pm 16.4 11.7 9.1 62 3.8 SW 24 30 13 16 1018.3 1018.0 0.0
19/11:00pm 17.6 11.6 8.7 56 4.6 SSW 30 39 16 21 1018.3 1018.0 0.0
19/10:30pm 18.6 12.5 9.9 57 4.6 S 32 46 17 25 1018.3 1018.0 0.0
19/10:00pm 18.4 12.8 8.9 54 5.0 SSW 28 44 15 24 1018.4 1018.1 0.0
19/09:30pm 17.3 12.8 8.7 57 4.4 SSW 22 30 12 16 1018.6 1018.3 0.0
19/09:00pm 18.5 13.3 10.1 58 4.5 S 28 39 15 21 1018.6 1018.3 0.0
19/08:30pm 18.5 11.8 8.2 51 5.3 S 33 46 18 25 1018.5 1018.2 0.0
19/08:12pm 18.3 12.7 8.8 54 5.0 SSW 28 46 15 25 1018.4 1018.1 0.0
19/08:00pm 17.5 12.3 8.9 57 4.5 SW 26 35 14 19 1018.5 1018.2 0.0
19/07:30pm 17.5 12.8 9.2 58 4.3 SSW 24 32 13 17 1018.4 1018.1 0.0
19/07:00pm 18.1 14.0 10.0 59 4.3 S 22 33 12 18 1018.0 1017.7 0.0
19/06:30pm 18.1 14.5 10.5 61 4.1 SSW 20 30 11 16 1017.7 1017.4 0.0
19/06:00pm 17.9 13.3 9.5 58 4.4 SSW 24 33 13 18 1017.1 1016.8 0.0
19/05:30pm 18.2 14.0 9.8 58 4.5 S 22 32 12 17 1016.7 1016.4 0.0
19/05:00pm 18.7 13.9 10.3 58 4.5 SSE 26 37 14 20 1016.2 1015.9 0.0
19/04:30pm 19.1 14.2 9.9 55 4.9 SSE 26 39 14 21 1016.0 1015.7 0.0
19/04:00pm 19.3 13.4 9.2 52 5.3 SSE 30 43 16 23 1015.5 1015.2 0.0
19/03:30pm 19.8 15.3 10.0 53 5.3 SSW 24 35 13 19 1015.4 1015.1 0.0
19/03:00pm 19.9 15.3 9.5 51 5.5 SSW 24 37 13 20 1015.2 1014.9 0.0
19/02:30pm 19.8 14.7 10.5 55 5.1 SSW 28 39 15 21 1015.1 1014.8 0.0
19/02:00pm 19.8 14.2 10.2 54 5.2 SSW 30 39 16 21 1015.0 1014.7 0.0
19/01:30pm 19.7 14.1 10.1 54 5.2 SSW 30 41 16 22 1015.2 1014.9 0.0
19/01:00pm 19.7 15.1 10.9 57 4.8 SSW 26 41 14 22 1015.2 1014.9 0.0
19/12:30pm 19.5 14.4 10.5 56 4.9 SSW 28 43 15 23 1015.7 1015.4 0.0
19/12:00pm 19.5 14.7 11.5 60 4.4 SSW 28 43 15 23 1016.0 1015.7 0.0
19/11:30am 19.0 14.8 11.1 60 4.3 SSW 24 43 13 23 1016.4 1016.1 0.0
19/11:16am 18.7 13.1 10.3 58 4.5 SSW 30 52 16 28 1016.4 1016.1 0.0
19/11:00am 18.5 12.7 10.8 61 4.2 SSW 32 48 17 26 1016.5 1016.2 0.0
19/10:51am 18.5 13.1 10.8 61 4.2 SSW 30 48 16 26 1016.7 1016.4 0.0
19/10:30am 18.2 12.5 11.0 63 3.9 SSW 32 46 17 25 1016.9 1016.6 0.0
19/10:00am 17.7 11.1 10.1 61 4.0 SSW 35 50 19 27 1016.8 1016.5 0.0
19/09:42am 17.6 11.4 10.2 62 3.9 SSW 33 52 18 28 1016.7 1016.4 0.0
19/09:30am 17.4 11.6 10.8 65 3.6 SSW 32 44 17 24 1016.9 1016.6 0.0
19/09:00am 16.5 10.7 9.4 63 3.7 SSW 30 50 16 27 1016.8 1016.5 0.2
19/08:57am 16.6 10.8 9.5 63 3.7 SSW 30 48 16 26 1016.7 1016.4 0.2
19/08:30am 16.4 11.5 9.8 65 3.5 SW 26 39 14 21 1016.6 1016.3 0.2
19/08:14am 16.1 10.7 9.5 65 3.4 SW 28 48 15 26 1016.4 1016.1 0.2
19/08:00am 16.0 11.1 9.9 67 3.2 SW 26 39 14 21 1016.3 1016.0 0.2
19/07:30am 15.1 10.1 9.7 70 2.8 SW 26 37 14 20 1016.3 1016.0 0.2
19/07:00am 14.7 8.8 9.1 69 2.9 SSW 30 43 16 23 1015.9 1015.6 0.2
19/06:30am 13.7 9.0 9.4 75 2.2 SW 24 33 13 18 1015.7 1015.4 0.2
19/06:00am 13.6 9.7 9.5 76 2.1 SW 20 30 11 16 1015.6 1015.3 0.2
19/05:30am 13.4 9.5 9.5 77 2.0 WSW 20 30 11 16 1015.2 1014.9 0.2
19/05:00am 13.9 9.2 9.3 74 2.4 SW 24 32 13 17 1014.7 1014.4 0.2
19/04:30am 14.0 8.9 9.2 73 2.5 SW 26 37 14 20 1014.2 1013.9 0.2
19/04:00am 13.7 8.7 9.4 75 2.2 SW 26 35 14 19 1014.5 1014.2 0.2
19/03:30am 14.0 8.1 9.2 73 2.5 SW 30 43 16 23 1014.4 1014.1 0.2
19/03:00am 13.7 8.2 9.2 74 2.3 SW 28 39 15 21 1014.5 1014.2 0.2
19/02:30am 13.5 8.0 9.2 75 2.2 SW 28 39 15 21 1014.6 1014.3 0.2
19/02:00am 13.3 8.2 9.2 76 2.1 SW 26 37 14 20 1014.6 1014.3 0.2
19/01:30am 13.2 8.6 9.6 79 1.8 SW 24 33 13 18 1014.9 1014.6 0.2
19/01:00am 13.5 8.6 9.9 79 1.9 SW 26 35 14 19 1014.7 1014.4 0.2
19/12:30am 13.8 9.5 10.8 82 1.6 SW 24 32 13 17 1014.8 1014.5 0.2
19/12:00am 14.9 9.4 10.5 75 2.3 SSW 30 44 16 24 1014.6 1014.3 0.2
 
Date/Time
EST
Temp
°C
App
Temp
°C
Dew
Point
°C
Rel
Hum
%
Delta-T
°C
Wind Press
QNH
hPa
Press
MSL
hPa
Rain since
9am
mm
Dir  Spd
km/h
Gust
km/h
Spd
kts
Gust
kts
18/11:30pm 15.2 10.2 11.0 76 2.2 SSW 28 41 15 22 1014.5 1014.2 0.2
18/11:00pm 15.4 9.8 11.6 78 2.1 SSW 32 44 17 24 1015.0 1014.7 0.2
18/10:30pm 16.2 10.9 13.1 82 1.7 SSW 33 48 18 26 1014.9 1014.6 0.2
18/10:21pm 16.1 10.9 12.7 80 1.9 SSW 32 48 17 26 1015.2 1014.9 0.2
18/10:00pm 17.0 10.1 11.5 70 3.0 S 39 52 21 28 1015.0 1014.7 0.2
18/09:37pm 17.5 10.3 12.0 70 3.0 S 41 59 22 32 1015.0 1014.7 0.2
18/09:30pm 17.5 10.0 12.2 71 2.9 S 43 59 23 32 1014.8 1014.5 0.2
18/09:15pm 18.7 14.3 15.2 80 2.1 SSE 32 57 17 31 1014.9 1014.6 0.2
18/09:00pm 18.5 13.8 14.4 77 2.4 SSE 32 44 17 24 1015.2 1014.9 0.2
18/08:30pm 18.3 15.3 13.8 75 2.6 SSW 22 32 12 17 1014.8 1014.5 0.2
18/08:00pm 19.1 16.4 12.8 67 3.6 WSW 19 22 10 12 1014.2 1013.9 0.2
18/07:30pm 19.0 16.9 13.6 71 3.1 WSW 17 28 9 15 1014.2 1013.9 0.2
18/07:00pm 19.9 17.9 14.0 69 3.4 SSW 17 28 9 15 1013.9 1013.6 0.2
18/06:30pm 20.2 18.7 14.3 69 3.4 SSE 15 20 8 11 1013.8 1013.5 0.2
18/06:00pm 20.0 18.5 13.0 64 4.0 SSE 13 15 7 8 1013.4 1013.1 0.2
18/05:30pm 19.8 19.0 13.0 65 3.9 SE 9 13 5 7 1013.1 1012.8 0.2
18/05:00pm 20.5 19.4 13.0 62 4.3 S 11 15 6 8 1013.0 1012.7 0.2
18/04:30pm 21.0 19.3 12.4 58 4.9 S 13 17 7 9 1012.9 1012.6 0.2
18/04:00pm 21.2 19.7 13.1 60 4.6 S 13 17 7 9 1013.1 1012.8 0.2
18/03:30pm 21.4 19.5 13.1 59 4.8 S 15 20 8 11 1013.3 1013.0 0.2
18/03:00pm 21.5 19.8 13.7 61 4.5 SSE 15 19 8 10 1013.4 1013.1 0.2
18/02:30pm 21.6 20.1 13.0 58 4.9 SSE 13 20 7 11 1013.3 1013.0 0.2
18/02:00pm 22.2 20.9 13.8 59 4.9 S 13 19 7 10 1013.3 1013.0 0.2
18/01:30pm 22.3 21.2 14.4 61 4.7 S 13 19 7 10 1013.8 1013.5 0.2
18/01:00pm 22.9 22.4 15.0 61 4.7 SSW 11 20 6 11 1014.2 1013.9 0.2
18/12:30pm 22.5 22.2 15.4 64 4.3 SW 11 19 6 10 1014.8 1014.5 0.2
18/12:00pm 21.9 21.1 16.0 69 3.6 SSE 15 20 8 11 1015.1 1014.8 0.0
18/11:30am 22.3 21.7 15.6 66 4.0 S 13 19 7 10 1015.5 1015.2 0.0
18/11:00am 22.1 21.5 16.6 71 3.4 S 15 24 8 13 1016.1 1015.8 0.0
18/10:30am 21.3 20.5 16.0 72 3.2 S 15 20 8 11 1016.5 1016.2 0.0
18/10:00am 21.2 20.4 16.2 73 3.0 SW 15 20 8 11 1016.9 1016.6 0.0
18/09:30am 21.0 20.8 16.6 76 2.7 SW 13 19 7 10 1017.1 1016.8 0.0
18/09:00am 19.4 18.5 15.9 80 2.1 SW 15 20 8 11 1017.2 1016.9 22.8
18/08:30am 18.2 16.3 15.3 83 1.7 SW 19 28 10 15 1017.3 1017.0 22.8
18/08:00am 17.7 16.7 15.7 88 1.2 WSW 15 20 8 11 1017.3 1017.0 22.8
18/07:30am 17.2 15.4 15.4 89 1.1 WSW 19 24 10 13 1017.1 1016.8 22.8
18/07:00am 17.5 16.5 15.5 88 1.2 SSW 15 20 8 11 1017.1 1016.8 22.8
18/06:30am 18.1 16.3 15.9 87 1.3 SE 20 28 11 15 1017.1 1016.8 22.8
18/06:00am 18.0 15.4 16.0 88 1.2 SSE 24 35 13 19 1017.0 1016.7 22.8
18/05:30am 16.8 14.2 15.0 89 1.0 SW 22 26 12 14 1016.7 1016.4 22.8
18/05:00am 17.1 14.2 15.1 88 1.2 SW 24 30 13 16 1016.4 1016.1 22.8
18/04:30am 17.5 14.6 15.1 86 1.4 SSW 24 30 13 16 1016.6 1016.3 22.8
18/04:00am 17.2 15.0 15.0 87 1.3 SW 20 28 11 15 1016.4 1016.1 22.8
18/03:30am 17.4 14.8 14.9 85 1.5 SW 22 30 12 16 1016.7 1016.4 22.8
18/03:00am 17.0 14.1 15.2 89 1.0 SW 24 32 13 17 1016.9 1016.6 22.8
18/02:30am 16.8 13.6 15.2 90 0.9 SW 26 32 14 17 1016.8 1016.5 22.8
18/02:00am 16.9 14.0 15.1 89 1.0 SW 24 30 13 16 1017.0 1016.7 22.8
18/01:30am 16.9 14.0 15.2 90 1.0 SW 24 30 13 16 1017.5 1017.2 22.8
18/01:00am 17.0 14.7 15.7 92 0.8 SW 22 32 12 17 1017.8 1017.5 22.8
18/12:30am 17.6 15.9 16.3 92 0.8 SSW 20 28 11 15 1018.2 1017.9 22.8
18/12:00am 17.7 16.0 16.2 91 0.9 SSW 20 24 11 13 1018.5 1018.2 22.8
 
Date/Time
EST
Temp
°C
App
Temp
°C
Dew
Point
°C
Rel
Hum
%
Delta-T
°C
Wind Press
QNH
hPa
Press
MSL
hPa
Rain since
9am
mm
Dir  Spd
km/h
Gust
km/h
Spd
kts
Gust
kts
17/11:30pm 17.3 16.0 15.8 91 0.9 SSW 17 20 9 11 1018.8 1018.5 22.8
17/11:00pm 17.3 15.6 15.8 91 0.9 SW 19 24 10 13 1019.0 1018.7 22.8
17/10:30pm 17.2 15.0 15.9 92 0.8 SW 22 26 12 14 1019.0 1018.7 22.8
17/10:00pm 17.4 16.3 16.3 93 0.7 SW 17 22 9 12 1019.4 1019.1 22.8
17/09:30pm 17.6 15.6 16.5 93 0.7 SSW 22 28 12 15 1019.7 1019.4 22.8
17/09:00pm 17.1 15.0 15.3 89 1.1 SW 20 28 11 15 1020.0 1019.7 22.8
17/08:30pm 17.5 14.1 14.8 84 1.6 SSE 26 32 14 17 1020.2 1019.9 22.6
17/08:00pm 18.2 14.5 17.0 93 0.7 SE 32 37 17 20 1020.1 1019.8 22.2
17/07:30pm 18.1 16.0 16.3 89 1.1 ESE 22 32 12 17 1020.4 1020.1 21.8
17/07:11pm 18.1 12.3 15.9 87 1.3 ESE 41 59 22 32 1020.0 1019.7 21.6
17/07:01pm 19.8 15.4 16.6 82 1.9 SSE 35 56 19 30 1019.8 1019.5 21.6
17/07:00pm 20.0 15.9 16.4 80 2.2 SSE 33 56 18 30 1019.8 1019.5 21.6
17/06:59pm 19.9 15.9 16.2 79 2.2 SSE 32 56 17 30 1019.7 1019.4 21.6
17/06:30pm 19.8 16.6 16.3 80 2.1 SSE 28 35 15 19 1019.8 1019.5 21.6
17/06:00pm 19.5 15.9 16.2 81 2.0 SSE 30 37 16 20 1019.5 1019.2 21.6
17/05:30pm 19.5 15.5 16.2 81 2.0 SSE 32 37 17 20 1019.2 1018.9 21.6
17/05:00pm 19.0 14.4 16.0 83 1.8 SE 35 41 19 22 1019.0 1018.7 21.6

Other formats

Comma delimited format used in spreadsheet applications
http://www.bom.gov.au/fwo/IDQ60801/IDQ60801.94594.axf

JavaScript Object Notation format (JSON) in row-major order
http://www.bom.gov.au/fwo/IDQ60801/IDQ60801.94594.json

Data quality

Most of these data are generated automatically and are frequently updated. Quality checks on data are not normally performed. It is possible for incorrect values to appear. Refer to information at About Latest Weather Observations and please check the disclaimer before using these data.